createdAt,value
2019-03-16T00:00:01.895Z,6.9
2019-03-16T00:05:01.687Z,6.8
2019-03-16T00:10:01.960Z,6.7
2019-03-16T00:15:01.833Z,6.7
2019-03-16T00:20:01.459Z,6.6
2019-03-16T00:25:02.441Z,6.6
2019-03-16T00:30:01.309Z,6.6
2019-03-16T00:35:02.045Z,6.5
2019-03-16T00:40:01.409Z,6.5
2019-03-16T00:45:02.136Z,6.5
2019-03-16T00:50:01.487Z,6.5
2019-03-16T00:55:01.362Z,6.5
2019-03-16T01:00:02.064Z,6.5
2019-03-16T01:05:01.635Z,6.5
2019-03-16T01:10:01.768Z,6.5
2019-03-16T01:15:01.718Z,6.5
2019-03-16T01:20:02.048Z,6.5
2019-03-16T01:25:02.029Z,6.5
2019-03-16T01:30:02.478Z,6.5
2019-03-16T01:35:02.278Z,6.5
2019-03-16T01:40:01.674Z,6.5
2019-03-16T01:45:02.064Z,6.6
2019-03-16T01:50:01.984Z,6.6
2019-03-16T01:55:02.413Z,6.6
2019-03-16T02:00:01.803Z,6.6
2019-03-16T02:05:01.615Z,6.6
2019-03-16T02:10:01.307Z,6.5
2019-03-16T02:15:01.812Z,6.5
2019-03-16T02:20:01.605Z,6.5
2019-03-16T02:25:01.270Z,6.5
2019-03-16T02:30:02.040Z,6.5
2019-03-16T02:35:01.558Z,6.4
2019-03-16T02:40:01.336Z,6.4
2019-03-16T02:45:01.785Z,6.5
2019-03-16T02:50:01.388Z,6.5
2019-03-16T02:55:01.693Z,6.5
2019-03-16T03:00:01.824Z,6.5
2019-03-16T03:05:01.785Z,6.6
2019-03-16T03:10:02.375Z,6.6
2019-03-16T03:15:01.859Z,6.6
2019-03-16T03:20:01.959Z,6.6
2019-03-16T03:25:01.900Z,6.6
2019-03-16T03:30:02.137Z,6.6
2019-03-16T03:35:01.678Z,6.6
2019-03-16T03:40:01.733Z,6.6
2019-03-16T03:45:01.414Z,6.6
2019-03-16T03:50:01.816Z,6.7
2019-03-16T03:55:01.501Z,6.7
2019-03-16T04:00:01.394Z,6.7
2019-03-16T04:05:01.469Z,6.7
2019-03-16T04:10:02.290Z,6.7
2019-03-16T04:15:01.329Z,6.7
2019-03-16T04:20:02.016Z,6.7
2019-03-16T04:25:01.833Z,6.6
2019-03-16T04:30:02.249Z,6.6
2019-03-16T04:35:01.246Z,6.6
2019-03-16T04:40:02.012Z,6.6
2019-03-16T04:45:02.355Z,6.5
2019-03-16T04:50:01.828Z,6.5
2019-03-16T04:55:01.694Z,6.5
2019-03-16T05:00:01.686Z,6.5
2019-03-16T05:05:01.807Z,6.6
2019-03-16T05:10:01.732Z,6.6
2019-03-16T05:15:01.380Z,6.6
2019-03-16T05:20:01.681Z,6.5
2019-03-16T05:25:01.203Z,6.6
2019-03-16T05:30:02.145Z,6.5
2019-03-16T05:35:02.003Z,6.5
2019-03-16T05:40:01.244Z,6.6
2019-03-16T05:45:01.453Z,6.6
2019-03-16T05:50:01.965Z,6.6
2019-03-16T05:55:01.980Z,6.6
2019-03-16T06:00:01.938Z,6.5
2019-03-16T06:05:10.171Z,6.5
2019-03-16T06:10:02.290Z,6.5
2019-03-16T06:15:01.206Z,6.5
2019-03-16T06:20:01.980Z,6.5
2019-03-16T06:25:02.004Z,6.5
2019-03-16T06:30:01.649Z,6.6
2019-03-16T06:35:01.896Z,6.6
2019-03-16T06:40:02.096Z,6.6
2019-03-16T06:45:01.381Z,6.6
2019-03-16T06:50:01.565Z,6.7
2019-03-16T06:55:01.387Z,6.8
2019-03-16T07:00:01.711Z,6.9
2019-03-16T07:05:02.158Z,6.9
2019-03-16T07:10:02.139Z,7
2019-03-16T07:15:01.196Z,7.1
2019-03-16T07:20:02.398Z,7.2
2019-03-16T07:25:02.121Z,7.3
2019-03-16T07:30:01.790Z,7.4
2019-03-16T07:35:01.834Z,7.4
2019-03-16T07:40:01.975Z,7.4
2019-03-16T07:45:07.819Z,7.4
2019-03-16T07:50:01.876Z,7.5
2019-03-16T07:55:01.585Z,7.5
2019-03-16T08:00:01.861Z,7.6
2019-03-16T08:05:01.790Z,7.6
2019-03-16T08:10:03.233Z,7.7
2019-03-16T08:15:01.643Z,7.8
2019-03-16T08:20:01.816Z,7.8
2019-03-16T08:25:01.781Z,7.9
2019-03-16T08:30:01.405Z,8
2019-03-16T08:35:01.574Z,8.1
2019-03-16T08:40:02.114Z,8.1
2019-03-16T08:45:01.656Z,8.1
2019-03-16T08:50:02.177Z,8.2
2019-03-16T08:55:02.329Z,8.2
2019-03-16T09:00:01.875Z,8.3
2019-03-16T09:05:01.819Z,8.4
2019-03-16T09:10:02.632Z,8.7
2019-03-16T09:15:01.223Z,8.8
2019-03-16T09:20:02.697Z,9
2019-03-16T09:25:01.959Z,9.2
2019-03-16T09:30:02.171Z,9.1
2019-03-16T09:35:01.481Z,9.1
2019-03-16T09:40:01.600Z,9
2019-03-16T09:45:02.316Z,8.9
2019-03-16T09:50:01.983Z,8.9
2019-03-16T09:55:01.899Z,9
2019-03-16T10:00:02.490Z,9
2019-03-16T10:05:01.504Z,9
2019-03-16T10:10:01.304Z,9.1
2019-03-16T10:15:01.493Z,9.1
2019-03-16T10:20:01.249Z,9.2
2019-03-16T10:25:02.112Z,9.3
2019-03-16T10:30:01.483Z,9.3
2019-03-16T10:35:01.743Z,9.2
2019-03-16T10:40:01.947Z,9.2
2019-03-16T10:45:02.208Z,9.1
2019-03-16T10:50:01.251Z,9.1
2019-03-16T10:55:01.740Z,8.9
2019-03-16T11:00:01.810Z,8.4
2019-03-16T11:05:01.779Z,8.2
2019-03-16T11:10:02.279Z,7.9
2019-03-16T11:15:01.362Z,7.7
2019-03-16T11:20:01.226Z,7.7
2019-03-16T11:25:01.320Z,7.8
2019-03-16T11:30:01.872Z,7.7
2019-03-16T11:35:01.288Z,7.8
2019-03-16T11:40:02.081Z,7.7
2019-03-16T11:45:01.936Z,7.5
2019-03-16T11:50:02.348Z,7.3
2019-03-16T11:55:02.006Z,7.2
2019-03-16T12:00:01.550Z,7.2
2019-03-16T12:05:01.786Z,7.3
2019-03-16T12:10:01.899Z,7.3
2019-03-16T12:15:01.591Z,7.5
2019-03-16T12:20:02.397Z,7.5
2019-03-16T12:25:01.619Z,7.5
2019-03-16T12:30:01.804Z,7.6
2019-03-16T12:35:01.522Z,7.6
2019-03-16T12:40:01.732Z,7.5
2019-03-16T12:45:01.906Z,7.5
2019-03-16T12:50:01.445Z,7.5
2019-03-16T12:55:02.143Z,7.5
2019-03-16T13:00:01.603Z,7.4
2019-03-16T13:05:01.914Z,7.3
2019-03-16T13:10:01.301Z,7.1
2019-03-16T13:15:01.513Z,7
2019-03-16T13:20:01.633Z,6.9
2019-03-16T13:25:02.071Z,6.8
2019-03-16T13:30:01.352Z,6.7
2019-03-16T13:35:01.546Z,6.7
2019-03-16T13:40:01.927Z,6.6
2019-03-16T13:45:01.682Z,6.7
2019-03-16T13:50:02.036Z,6.7
2019-03-16T13:55:01.248Z,6.6
2019-03-16T14:00:11.055Z,6.4
2019-03-16T14:05:02.131Z,6.3
2019-03-16T14:10:01.641Z,6.3
2019-03-16T14:15:01.957Z,6.3
2019-03-16T14:20:01.584Z,6.3
2019-03-16T14:25:01.608Z,6.3
2019-03-16T14:30:01.253Z,6.3
2019-03-16T14:35:01.601Z,6.2
2019-03-16T14:40:02.468Z,6.2
2019-03-16T14:45:02.554Z,6.1
2019-03-16T14:50:02.220Z,6.2
2019-03-16T14:55:04.650Z,6.1
2019-03-16T15:00:01.781Z,6.2
2019-03-16T15:05:01.809Z,6.1
2019-03-16T15:10:02.078Z,6.1
2019-03-16T15:15:03.066Z,6.2
2019-03-16T15:20:02.025Z,6.2
2019-03-16T15:25:01.679Z,6.2
2019-03-16T15:30:01.901Z,6.2
2019-03-16T15:35:02.083Z,6.3
2019-03-16T15:40:01.829Z,6.3
2019-03-16T15:45:01.706Z,6.3
2019-03-16T15:50:03.310Z,6.3
2019-03-16T15:55:02.073Z,6.3
2019-03-16T16:00:01.749Z,6.4
2019-03-16T16:05:01.467Z,6.4
2019-03-16T16:10:01.609Z,6.5
2019-03-16T16:15:02.050Z,6.5
2019-03-16T16:20:02.114Z,6.5
2019-03-16T16:25:01.679Z,6.6
2019-03-16T16:30:01.921Z,6.7
2019-03-16T16:35:01.595Z,6.7
2019-03-16T16:40:01.820Z,6.8
2019-03-16T16:45:01.793Z,6.9
2019-03-16T16:50:01.860Z,6.9
2019-03-16T16:55:01.555Z,7
2019-03-16T17:00:01.965Z,7
2019-03-16T17:05:01.849Z,7.1
2019-03-16T17:10:02.605Z,7.2
2019-03-16T17:15:02.072Z,7.3
2019-03-16T17:20:01.664Z,7.4
2019-03-16T17:25:02.122Z,7.4
2019-03-16T17:30:01.830Z,7.5
2019-03-16T17:35:01.784Z,7.6
2019-03-16T17:40:02.111Z,7.7
2019-03-16T17:45:02.214Z,7.8
2019-03-16T17:50:02.230Z,8
2019-03-16T17:55:01.245Z,8.2
2019-03-16T18:00:01.990Z,8.4
2019-03-16T18:05:02.220Z,8.6
2019-03-16T18:10:01.810Z,8.7
2019-03-16T18:15:01.589Z,8.9
2019-03-16T18:20:01.543Z,8.9
2019-03-16T18:25:01.882Z,9
2019-03-16T18:30:01.785Z,9.1
2019-03-16T18:35:01.792Z,9.1
2019-03-16T18:40:01.947Z,9.2
2019-03-16T18:45:01.980Z,9.2
2019-03-16T18:50:01.653Z,9.3
2019-03-16T18:55:01.694Z,9.3
2019-03-16T19:00:01.847Z,9.3
2019-03-16T19:05:01.789Z,9.4
2019-03-16T19:10:02.268Z,9.4
2019-03-16T19:15:01.352Z,9.4
2019-03-16T19:20:02.137Z,9.5
2019-03-16T19:25:02.061Z,9.5
2019-03-16T19:30:01.660Z,9.5
2019-03-16T19:35:02.224Z,9.5
2019-03-16T19:40:01.784Z,9.4
2019-03-16T19:45:01.637Z,9.5
2019-03-16T19:50:01.373Z,9.5
2019-03-16T19:55:01.734Z,9.5
2019-03-16T20:00:01.453Z,9.5
2019-03-16T20:05:01.549Z,9.4
2019-03-16T20:10:01.964Z,9.4
2019-03-16T20:15:02.219Z,9.4
2019-03-16T20:20:02.025Z,9.4
2019-03-16T20:25:01.526Z,9.3
2019-03-16T20:30:02.023Z,9.3
2019-03-16T20:35:02.315Z,9.3
2019-03-16T20:40:02.186Z,9.4
2019-03-16T20:45:02.430Z,9.3
2019-03-16T20:50:01.416Z,9.4
2019-03-16T20:55:01.841Z,9.3
2019-03-16T21:00:01.945Z,9.3
2019-03-16T21:05:01.993Z,9.3
2019-03-16T21:10:02.306Z,9.4
2019-03-16T21:15:01.502Z,9.4
2019-03-16T21:20:02.957Z,9.4
2019-03-16T21:25:01.981Z,9.5
2019-03-16T21:30:02.036Z,9.6
2019-03-16T21:35:01.730Z,9.7
2019-03-16T21:40:01.869Z,9.8
2019-03-16T21:45:01.666Z,9.9
2019-03-16T21:50:02.342Z,9.9
2019-03-16T21:55:02.377Z,10
2019-03-16T22:00:01.763Z,10
2019-03-16T22:05:02.227Z,10.1
2019-03-16T22:10:01.800Z,10.2
2019-03-16T22:15:01.346Z,10.2
2019-03-16T22:20:01.840Z,10.2
2019-03-16T22:25:02.345Z,10.3
2019-03-16T22:30:01.846Z,10.4
2019-03-16T22:35:01.919Z,10.3
2019-03-16T22:40:01.886Z,10.3
2019-03-16T22:45:02.036Z,10.4
2019-03-16T22:50:02.208Z,10.4
2019-03-16T22:55:02.039Z,10.4
2019-03-16T23:00:01.454Z,10.4
2019-03-16T23:05:02.599Z,10.4
2019-03-16T23:10:01.910Z,10.4
2019-03-16T23:15:01.980Z,10.4
2019-03-16T23:20:02.611Z,10.5
2019-03-16T23:25:01.910Z,10.4
2019-03-16T23:30:02.007Z,10.4
2019-03-16T23:35:02.300Z,10.4
2019-03-16T23:40:01.313Z,10.4
2019-03-16T23:45:02.088Z,10.4
2019-03-16T23:50:01.433Z,10.4
2019-03-16T23:55:02.855Z,10.4
